sensor_id;sensor_type;location;lat;lon;timestamp;P1;durP1;ratioP1;P2;durP2;ratioP2
60014;SDS011;45867;52.480;6.056;2022-08-04T00:00:37;15.55;;;3.40;;
60014;SDS011;45867;52.480;6.056;2022-08-04T00:03:09;17.42;;;3.78;;
60014;SDS011;45867;52.480;6.056;2022-08-04T00:06:10;13.15;;;3.15;;
60014;SDS011;45867;52.480;6.056;2022-08-04T00:10:53;9.52;;;3.17;;
60014;SDS011;45867;52.480;6.056;2022-08-04T00:13:22;13.65;;;3.70;;
60014;SDS011;45867;52.480;6.056;2022-08-04T00:15:56;10.75;;;3.58;;
60014;SDS011;45867;52.480;6.056;2022-08-04T00:18:22;11.43;;;3.50;;
60014;SDS011;45867;52.480;6.056;2022-08-04T00:20:50;16.10;;;3.67;;
60014;SDS011;45867;52.480;6.056;2022-08-04T00:23:23;16.20;;;3.75;;
60014;SDS011;45867;52.480;6.056;2022-08-04T00:25:50;11.00;;;4.82;;
60014;SDS011;45867;52.480;6.056;2022-08-04T00:28:16;23.23;;;4.63;;
60014;SDS011;45867;52.480;6.056;2022-08-04T00:30:41;13.52;;;4.25;;
60014;SDS011;45867;52.480;6.056;2022-08-04T00:33:07;15.70;;;3.90;;
60014;SDS011;45867;52.480;6.056;2022-08-04T00:35:32;14.00;;;4.45;;
60014;SDS011;45867;52.480;6.056;2022-08-04T00:37:58;13.43;;;4.13;;
60014;SDS011;45867;52.480;6.056;2022-08-04T00:45:40;19.73;;;5.15;;
60014;SDS011;45867;52.480;6.056;2022-08-04T00:48:12;16.60;;;5.35;;
60014;SDS011;45867;52.480;6.056;2022-08-04T00:50:59;12.93;;;4.65;;
60014;SDS011;45867;52.480;6.056;2022-08-04T00:56:11;20.40;;;5.10;;
60014;SDS011;45867;52.480;6.056;2022-08-04T00:58:58;17.17;;;5.07;;
60014;SDS011;45867;52.480;6.056;2022-08-04T01:14:34;13.68;;;5.00;;
60014;SDS011;45867;52.480;6.056;2022-08-04T01:19:57;15.50;;;5.72;;
60014;SDS011;45867;52.480;6.056;2022-08-04T01:24:58;11.00;;;5.70;;
60014;SDS011;45867;52.480;6.056;2022-08-04T01:30:12;11.93;;;5.30;;
60014;SDS011;45867;52.480;6.056;2022-08-04T01:32:39;17.35;;;5.35;;
60014;SDS011;45867;52.480;6.056;2022-08-04T01:35:07;17.27;;;5.53;;
60014;SDS011;45867;52.480;6.056;2022-08-04T01:40:02;16.00;;;5.33;;
60014;SDS011;45867;52.480;6.056;2022-08-04T01:42:28;21.50;;;5.93;;
60014;SDS011;45867;52.480;6.056;2022-08-04T01:44:55;12.18;;;5.93;;
60014;SDS011;45867;52.480;6.056;2022-08-04T01:47:22;14.00;;;6.07;;
60014;SDS011;45867;52.480;6.056;2022-08-04T01:49:51;18.38;;;6.40;;
60014;SDS011;45867;52.480;6.056;2022-08-04T01:52:18;16.15;;;5.88;;
60014;SDS011;45867;52.480;6.056;2022-08-04T01:54:45;13.02;;;6.00;;
60014;SDS011;45867;52.480;6.056;2022-08-04T01:57:10;14.15;;;6.03;;
60014;SDS011;45867;52.480;6.056;2022-08-04T01:59:36;15.13;;;5.90;;
60014;SDS011;45867;52.480;6.056;2022-08-04T02:02:02;16.85;;;6.07;;
60014;SDS011;45867;52.480;6.056;2022-08-04T02:04:27;16.10;;;6.22;;
60014;SDS011;45867;52.480;6.056;2022-08-04T02:07:06;20.92;;;6.05;;
60014;SDS011;45867;52.480;6.056;2022-08-04T02:09:37;12.10;;;6.32;;
60014;SDS011;45867;52.480;6.056;2022-08-04T02:14:28;21.85;;;6.63;;
60014;SDS011;45867;52.480;6.056;2022-08-04T02:17:11;22.38;;;7.25;;
60014;SDS011;45867;52.480;6.056;2022-08-04T02:19:44;16.83;;;6.78;;
60014;SDS011;45867;52.480;6.056;2022-08-04T02:22:14;22.10;;;6.85;;
60014;SDS011;45867;52.480;6.056;2022-08-04T02:24:48;13.77;;;6.47;;
60014;SDS011;45867;52.480;6.056;2022-08-04T02:27:14;15.15;;;5.97;;
60014;SDS011;45867;52.480;6.056;2022-08-04T02:29:50;18.67;;;6.20;;
60014;SDS011;45867;52.480;6.056;2022-08-04T02:32:24;16.55;;;6.13;;
60014;SDS011;45867;52.480;6.056;2022-08-04T02:34:53;17.60;;;5.93;;
60014;SDS011;45867;52.480;6.056;2022-08-04T02:39:49;17.02;;;6.22;;
60014;SDS011;45867;52.480;6.056;2022-08-04T02:42:16;11.77;;;6.07;;
60014;SDS011;45867;52.480;6.056;2022-08-04T02:44:42;21.42;;;7.50;;
60014;SDS011;45867;52.480;6.056;2022-08-04T02:47:11;18.55;;;7.07;;
60014;SDS011;45867;52.480;6.056;2022-08-04T02:49:36;11.93;;;6.78;;
60014;SDS011;45867;52.480;6.056;2022-08-04T02:52:02;19.67;;;7.35;;
60014;SDS011;45867;52.480;6.056;2022-08-04T02:54:30;13.90;;;7.45;;
60014;SDS011;45867;52.480;6.056;2022-08-04T02:56:56;15.73;;;5.82;;
60014;SDS011;45867;52.480;6.056;2022-08-04T02:59:28;13.02;;;6.53;;
60014;SDS011;45867;52.480;6.056;2022-08-04T03:01:54;14.82;;;6.45;;
60014;SDS011;45867;52.480;6.056;2022-08-04T03:12:33;15.02;;;6.38;;
60014;SDS011;45867;52.480;6.056;2022-08-04T03:15:18;11.55;;;6.10;;
60014;SDS011;45867;52.480;6.056;2022-08-04T03:28:17;14.73;;;6.50;;
60014;SDS011;45867;52.480;6.056;2022-08-04T03:30:57;14.52;;;6.13;;
60014;SDS011;45867;52.480;6.056;2022-08-04T03:33:41;17.45;;;6.47;;
60014;SDS011;45867;52.480;6.056;2022-08-04T03:36:25;16.15;;;6.90;;
60014;SDS011;45867;52.480;6.056;2022-08-04T03:39:13;23.20;;;6.72;;
60014;SDS011;45867;52.480;6.056;2022-08-04T03:44:34;18.23;;;6.97;;
60014;SDS011;45867;52.480;6.056;2022-08-04T04:00:22;13.73;;;6.53;;
60014;SDS011;45867;52.480;6.056;2022-08-04T04:02:57;12.82;;;6.30;;
60014;SDS011;45867;52.480;6.056;2022-08-04T04:05:47;18.13;;;7.20;;
60014;SDS011;45867;52.480;6.056;2022-08-04T04:08:18;16.02;;;6.63;;
60014;SDS011;45867;52.480;6.056;2022-08-04T04:18:20;23.67;;;7.25;;
60014;SDS011;45867;52.480;6.056;2022-08-04T04:29:12;17.50;;;7.32;;
60014;SDS011;45867;52.480;6.056;2022-08-04T04:39:00;15.80;;;7.05;;
60014;SDS011;45867;52.480;6.056;2022-08-04T04:41:33;15.10;;;7.57;;
60014;SDS011;45867;52.480;6.056;2022-08-04T04:49:32;24.05;;;8.18;;
60014;SDS011;45867;52.480;6.056;2022-08-04T04:54:37;21.15;;;8.63;;
60014;SDS011;45867;52.480;6.056;2022-08-04T04:57:13;25.27;;;8.05;;
60014;SDS011;45867;52.480;6.056;2022-08-04T04:59:44;20.00;;;8.07;;
60014;SDS011;45867;52.480;6.056;2022-08-04T05:13:06;20.55;;;8.50;;
60014;SDS011;45867;52.480;6.056;2022-08-04T05:15:39;25.08;;;8.23;;
60014;SDS011;45867;52.480;6.056;2022-08-04T05:18:05;21.42;;;8.02;;
60014;SDS011;45867;52.480;6.056;2022-08-04T05:20:33;24.95;;;8.05;;
60014;SDS011;45867;52.480;6.056;2022-08-04T05:23:05;18.08;;;7.95;;
60014;SDS011;45867;52.480;6.056;2022-08-04T05:28:02;17.42;;;7.72;;
60014;SDS011;45867;52.480;6.056;2022-08-04T05:30:29;17.52;;;8.23;;
60014;SDS011;45867;52.480;6.056;2022-08-04T05:33:04;16.77;;;7.80;;
60014;SDS011;45867;52.480;6.056;2022-08-04T05:35:32;19.08;;;7.82;;
60014;SDS011;45867;52.480;6.056;2022-08-04T05:37:58;13.93;;;6.65;;
60014;SDS011;45867;52.480;6.056;2022-08-04T05:40:25;19.38;;;7.40;;
60014;SDS011;45867;52.480;6.056;2022-08-04T05:42:50;19.25;;;7.65;;
60014;SDS011;45867;52.480;6.056;2022-08-04T05:45:16;22.45;;;7.20;;
60014;SDS011;45867;52.480;6.056;2022-08-04T05:47:45;26.02;;;7.80;;
60014;SDS011;45867;52.480;6.056;2022-08-04T05:50:11;20.55;;;7.15;;
60014;SDS011;45867;52.480;6.056;2022-08-04T05:52:37;16.42;;;6.40;;
60014;SDS011;45867;52.480;6.056;2022-08-04T05:55:03;17.58;;;6.40;;
60014;SDS011;45867;52.480;6.056;2022-08-04T05:57:29;16.73;;;7.30;;
60014;SDS011;45867;52.480;6.056;2022-08-04T05:59:54;16.38;;;6.90;;
60014;SDS011;45867;52.480;6.056;2022-08-04T06:04:49;15.50;;;6.80;;
60014;SDS011;45867;52.480;6.056;2022-08-04T06:07:17;11.20;;;6.43;;
60014;SDS011;45867;52.480;6.056;2022-08-04T06:09:43;19.58;;;6.95;;
60014;SDS011;45867;52.480;6.056;2022-08-04T06:12:10;15.90;;;6.60;;
60014;SDS011;45867;52.480;6.056;2022-08-04T06:14:38;15.35;;;6.45;;
60014;SDS011;45867;52.480;6.056;2022-08-04T06:17:04;15.25;;;6.20;;
60014;SDS011;45867;52.480;6.056;2022-08-04T06:19:30;19.08;;;6.95;;
60014;SDS011;45867;52.480;6.056;2022-08-04T06:21:58;17.88;;;6.00;;
60014;SDS011;45867;52.480;6.056;2022-08-04T06:24:25;12.15;;;6.05;;
60014;SDS011;45867;52.480;6.056;2022-08-04T06:26:52;16.35;;;5.65;;
60014;SDS011;45867;52.480;6.056;2022-08-04T06:29:19;16.90;;;5.85;;
60014;SDS011;45867;52.480;6.056;2022-08-04T06:31:50;17.83;;;5.55;;
60014;SDS011;45867;52.480;6.056;2022-08-04T06:34:23;14.68;;;5.53;;
60014;SDS011;45867;52.480;6.056;2022-08-04T06:36:49;12.07;;;5.72;;
60014;SDS011;45867;52.480;6.056;2022-08-04T06:39:15;12.13;;;5.15;;
60014;SDS011;45867;52.480;6.056;2022-08-04T06:41:41;20.70;;;5.72;;
60014;SDS011;45867;52.480;6.056;2022-08-04T06:44:07;16.73;;;5.72;;
60014;SDS011;45867;52.480;6.056;2022-08-04T06:46:33;12.63;;;5.15;;
60014;SDS011;45867;52.480;6.056;2022-08-04T06:48:59;21.48;;;5.85;;
60014;SDS011;45867;52.480;6.056;2022-08-04T06:51:24;19.23;;;5.63;;
60014;SDS011;45867;52.480;6.056;2022-08-04T06:56:37;16.27;;;5.15;;
60014;SDS011;45867;52.480;6.056;2022-08-04T06:59:02;15.43;;;5.07;;
60014;SDS011;45867;52.480;6.056;2022-08-04T07:01:28;15.43;;;4.75;;
60014;SDS011;45867;52.480;6.056;2022-08-04T07:03:54;17.60;;;5.07;;
60014;SDS011;45867;52.480;6.056;2022-08-04T07:06:20;14.13;;;4.57;;
60014;SDS011;45867;52.480;6.056;2022-08-04T07:08:45;17.88;;;4.90;;
60014;SDS011;45867;52.480;6.056;2022-08-04T07:11:11;25.05;;;5.03;;
60014;SDS011;45867;52.480;6.056;2022-08-04T07:13:36;21.33;;;4.82;;
60014;SDS011;45867;52.480;6.056;2022-08-04T07:16:02;26.38;;;4.65;;
60014;SDS011;45867;52.480;6.056;2022-08-04T07:18:29;32.70;;;4.43;;
60014;SDS011;45867;52.480;6.056;2022-08-04T07:20:54;29.52;;;4.72;;
60014;SDS011;45867;52.480;6.056;2022-08-04T07:23:23;14.13;;;4.60;;
60014;SDS011;45867;52.480;6.056;2022-08-04T07:25:49;25.50;;;4.03;;
60014;SDS011;45867;52.480;6.056;2022-08-04T07:28:16;10.98;;;3.60;;
60014;SDS011;45867;52.480;6.056;2022-08-04T07:30:42;11.45;;;3.40;;
60014;SDS011;45867;52.480;6.056;2022-08-04T07:33:08;14.70;;;4.28;;
60014;SDS011;45867;52.480;6.056;2022-08-04T07:35:34;15.05;;;4.15;;
60014;SDS011;45867;52.480;6.056;2022-08-04T07:37:59;22.60;;;4.10;;
60014;SDS011;45867;52.480;6.056;2022-08-04T07:40:24;22.80;;;5.22;;
60014;SDS011;45867;52.480;6.056;2022-08-04T07:42:50;13.98;;;4.75;;
60014;SDS011;45867;52.480;6.056;2022-08-04T07:45:17;14.50;;;5.05;;
60014;SDS011;45867;52.480;6.056;2022-08-04T07:47:43;21.10;;;5.13;;
60014;SDS011;45867;52.480;6.056;2022-08-04T07:50:08;14.38;;;5.13;;
60014;SDS011;45867;52.480;6.056;2022-08-04T07:52:35;16.33;;;5.53;;
60014;SDS011;45867;52.480;6.056;2022-08-04T07:55:01;20.70;;;5.85;;
60014;SDS011;45867;52.480;6.056;2022-08-04T07:57:26;30.70;;;5.07;;
60014;SDS011;45867;52.480;6.056;2022-08-04T07:59:51;19.27;;;5.53;;
60014;SDS011;45867;52.480;6.056;2022-08-04T08:02:17;11.20;;;4.77;;
60014;SDS011;45867;52.480;6.056;2022-08-04T08:04:44;20.02;;;5.47;;
60014;SDS011;45867;52.480;6.056;2022-08-04T08:07:10;9.75;;;4.68;;
60014;SDS011;45867;52.480;6.056;2022-08-04T08:09:36;16.73;;;4.82;;
60014;SDS011;45867;52.480;6.056;2022-08-04T08:12:02;14.57;;;4.90;;
60014;SDS011;45867;52.480;6.056;2022-08-04T08:14:28;16.95;;;5.72;;
60014;SDS011;45867;52.480;6.056;2022-08-04T08:16:54;14.55;;;5.60;;
60014;SDS011;45867;52.480;6.056;2022-08-04T08:19:19;15.93;;;5.30;;
60014;SDS011;45867;52.480;6.056;2022-08-04T08:21:48;19.60;;;5.25;;
60014;SDS011;45867;52.480;6.056;2022-08-04T08:24:14;17.35;;;5.05;;
60014;SDS011;45867;52.480;6.056;2022-08-04T08:26:39;20.15;;;5.13;;
60014;SDS011;45867;52.480;6.056;2022-08-04T08:29:05;22.48;;;4.90;;
60014;SDS011;45867;52.480;6.056;2022-08-04T08:31:31;16.48;;;5.53;;
60014;SDS011;45867;52.480;6.056;2022-08-04T08:33:56;18.30;;;5.70;;
60014;SDS011;45867;52.480;6.056;2022-08-04T08:38:58;22.63;;;5.18;;
60014;SDS011;45867;52.480;6.056;2022-08-04T09:09:59;10.23;;;4.22;;
60014;SDS011;45867;52.480;6.056;2022-08-04T09:12:35;13.00;;;4.22;;
60014;SDS011;45867;52.480;6.056;2022-08-04T09:17:48;8.73;;;2.83;;
60014;SDS011;45867;52.480;6.056;2022-08-04T09:20:15;7.38;;;2.47;;
60014;SDS011;45867;52.480;6.056;2022-08-04T09:22:50;8.80;;;2.92;;
60014;SDS011;45867;52.480;6.056;2022-08-04T09:27:57;9.95;;;2.80;;
60014;SDS011;45867;52.480;6.056;2022-08-04T09:30:31;12.23;;;3.00;;
60014;SDS011;45867;52.480;6.056;2022-08-04T09:36:06;11.27;;;3.28;;
60014;SDS011;45867;52.480;6.056;2022-08-04T09:38:39;8.15;;;2.38;;
60014;SDS011;45867;52.480;6.056;2022-08-04T09:46:22;21.08;;;2.83;;
60014;SDS011;45867;52.480;6.056;2022-08-04T09:49:02;17.73;;;2.85;;
60014;SDS011;45867;52.480;6.056;2022-08-04T09:52:06;13.97;;;2.50;;
60014;SDS011;45867;52.480;6.056;2022-08-04T09:54:22;13.48;;;3.38;;
60014;SDS011;45867;52.480;6.056;2022-08-04T10:01:41;9.90;;;2.70;;
60014;SDS011;45867;52.480;6.056;2022-08-04T10:04:08;11.18;;;2.70;;
60014;SDS011;45867;52.480;6.056;2022-08-04T10:09:27;7.72;;;2.60;;
60014;SDS011;45867;52.480;6.056;2022-08-04T10:12:11;7.57;;;2.50;;
60014;SDS011;45867;52.480;6.056;2022-08-04T10:14:52;17.77;;;2.90;;
60014;SDS011;45867;52.480;6.056;2022-08-04T10:22:36;11.98;;;2.85;;
60014;SDS011;45867;52.480;6.056;2022-08-04T10:25:24;11.63;;;2.40;;
60014;SDS011;45867;52.480;6.056;2022-08-04T10:27:54;7.28;;;2.05;;
60014;SDS011;45867;52.480;6.056;2022-08-04T10:30:21;9.15;;;3.13;;
60014;SDS011;45867;52.480;6.056;2022-08-04T10:33:02;7.25;;;2.05;;
60014;SDS011;45867;52.480;6.056;2022-08-04T10:45:35;8.52;;;1.85;;
60014;SDS011;45867;52.480;6.056;2022-08-04T10:51:03;6.43;;;2.30;;
60014;SDS011;45867;52.480;6.056;2022-08-04T10:53:30;4.68;;;2.00;;
60014;SDS011;45867;52.480;6.056;2022-08-04T10:56:03;4.30;;;1.60;;
60014;SDS011;45867;52.480;6.056;2022-08-04T10:58:32;8.05;;;1.90;;
60014;SDS011;45867;52.480;6.056;2022-08-04T11:00:59;9.43;;;2.05;;
60014;SDS011;45867;52.480;6.056;2022-08-04T11:03:33;6.60;;;2.13;;
60014;SDS011;45867;52.480;6.056;2022-08-04T11:06:00;5.70;;;1.52;;
60014;SDS011;45867;52.480;6.056;2022-08-04T11:11:04;7.40;;;1.50;;
60014;SDS011;45867;52.480;6.056;2022-08-04T11:13:33;4.45;;;2.10;;
60014;SDS011;45867;52.480;6.056;2022-08-04T11:16:01;5.70;;;1.90;;
60014;SDS011;45867;52.480;6.056;2022-08-04T11:18:35;7.07;;;1.92;;
60014;SDS011;45867;52.480;6.056;2022-08-04T11:21:09;8.30;;;2.30;;
60014;SDS011;45867;52.480;6.056;2022-08-04T11:23:35;9.85;;;2.15;;
60014;SDS011;45867;52.480;6.056;2022-08-04T11:28:38;8.57;;;2.30;;
60014;SDS011;45867;52.480;6.056;2022-08-04T11:31:09;12.13;;;2.67;;
60014;SDS011;45867;52.480;6.056;2022-08-04T11:36:15;7.57;;;2.30;;
60014;SDS011;45867;52.480;6.056;2022-08-04T11:38:54;5.40;;;2.20;;
60014;SDS011;45867;52.480;6.056;2022-08-04T11:41:38;9.98;;;2.20;;
60014;SDS011;45867;52.480;6.056;2022-08-04T11:44:04;8.82;;;2.38;;
60014;SDS011;45867;52.480;6.056;2022-08-04T11:46:35;9.38;;;2.30;;
60014;SDS011;45867;52.480;6.056;2022-08-04T11:51:31;5.80;;;2.33;;
60014;SDS011;45867;52.480;6.056;2022-08-04T11:53:57;4.88;;;2.08;;
60014;SDS011;45867;52.480;6.056;2022-08-04T11:56:23;8.70;;;2.70;;
60014;SDS011;45867;52.480;6.056;2022-08-04T11:58:48;10.32;;;2.58;;
60014;SDS011;45867;52.480;6.056;2022-08-04T12:01:19;5.67;;;2.43;;
60014;SDS011;45867;52.480;6.056;2022-08-04T12:03:51;6.38;;;2.28;;
60014;SDS011;45867;52.480;6.056;2022-08-04T12:08:57;8.10;;;2.38;;
60014;SDS011;45867;52.480;6.056;2022-08-04T12:11:47;13.38;;;2.70;;
60014;SDS011;45867;52.480;6.056;2022-08-04T12:17:03;7.78;;;2.17;;
60014;SDS011;45867;52.480;6.056;2022-08-04T12:19:30;4.93;;;2.13;;
60014;SDS011;45867;52.480;6.056;2022-08-04T12:21:57;8.00;;;2.20;;
60014;SDS011;45867;52.480;6.056;2022-08-04T12:24:34;10.10;;;2.20;;
60014;SDS011;45867;52.480;6.056;2022-08-04T12:27:03;6.38;;;2.22;;
60014;SDS011;45867;52.480;6.056;2022-08-04T12:29:30;7.60;;;2.00;;
60014;SDS011;45867;52.480;6.056;2022-08-04T12:31:59;12.88;;;2.00;;
60014;SDS011;45867;52.480;6.056;2022-08-04T12:34:31;9.25;;;2.08;;
60014;SDS011;45867;52.480;6.056;2022-08-04T12:37:00;5.05;;;2.28;;
60014;SDS011;45867;52.480;6.056;2022-08-04T12:39:26;6.32;;;2.40;;
60014;SDS011;45867;52.480;6.056;2022-08-04T12:44:17;7.68;;;2.20;;
60014;SDS011;45867;52.480;6.056;2022-08-04T12:46:44;8.65;;;2.47;;
60014;SDS011;45867;52.480;6.056;2022-08-04T12:49:10;3.15;;;1.65;;
60014;SDS011;45867;52.480;6.056;2022-08-04T12:51:36;4.43;;;1.80;;
60014;SDS011;45867;52.480;6.056;2022-08-04T12:54:03;7.30;;;2.30;;
60014;SDS011;45867;52.480;6.056;2022-08-04T12:56:29;5.43;;;2.00;;
60014;SDS011;45867;52.480;6.056;2022-08-04T12:59:00;5.32;;;1.90;;
60014;SDS011;45867;52.480;6.056;2022-08-04T13:01:26;4.38;;;1.80;;
60014;SDS011;45867;52.480;6.056;2022-08-04T13:03:55;5.25;;;1.88;;
60014;SDS011;45867;52.480;6.056;2022-08-04T13:06:29;3.80;;;1.60;;
60014;SDS011;45867;52.480;6.056;2022-08-04T13:08:55;6.47;;;2.03;;
60014;SDS011;45867;52.480;6.056;2022-08-04T13:13:52;4.82;;;1.90;;
60014;SDS011;45867;52.480;6.056;2022-08-04T13:16:18;8.68;;;2.05;;
60014;SDS011;45867;52.480;6.056;2022-08-04T13:18:52;5.03;;;1.77;;
60014;SDS011;45867;52.480;6.056;2022-08-04T13:21:18;5.18;;;1.90;;
60014;SDS011;45867;52.480;6.056;2022-08-04T13:23:45;4.90;;;1.88;;
60014;SDS011;45867;52.480;6.056;2022-08-04T13:26:12;9.55;;;2.10;;
60014;SDS011;45867;52.480;6.056;2022-08-04T13:28:39;5.35;;;1.90;;
60014;SDS011;45867;52.480;6.056;2022-08-04T13:31:07;3.28;;;1.60;;
60014;SDS011;45867;52.480;6.056;2022-08-04T13:33:35;5.13;;;1.85;;
60014;SDS011;45867;52.480;6.056;2022-08-04T13:36:01;8.13;;;2.10;;
60014;SDS011;45867;52.480;6.056;2022-08-04T13:38:27;9.43;;;1.75;;
60014;SDS011;45867;52.480;6.056;2022-08-04T13:40:58;7.53;;;1.85;;
60014;SDS011;45867;52.480;6.056;2022-08-04T13:43:26;6.43;;;2.17;;
60014;SDS011;45867;52.480;6.056;2022-08-04T13:45:57;7.93;;;2.03;;
60014;SDS011;45867;52.480;6.056;2022-08-04T13:48:23;4.47;;;1.85;;
60014;SDS011;45867;52.480;6.056;2022-08-04T13:50:48;8.73;;;2.28;;
60014;SDS011;45867;52.480;6.056;2022-08-04T13:53:16;5.78;;;1.90;;
60014;SDS011;45867;52.480;6.056;2022-08-04T13:55:41;3.45;;;1.90;;
60014;SDS011;45867;52.480;6.056;2022-08-04T13:58:29;6.38;;;2.05;;
60014;SDS011;45867;52.480;6.056;2022-08-04T14:03:33;12.15;;;2.10;;
60014;SDS011;45867;52.480;6.056;2022-08-04T14:06:10;8.80;;;2.17;;
60014;SDS011;45867;52.480;6.056;2022-08-04T14:08:50;6.93;;;2.20;;
60014;SDS011;45867;52.480;6.056;2022-08-04T14:11:16;5.05;;;2.17;;
60014;SDS011;45867;52.480;6.056;2022-08-04T14:13:42;7.70;;;2.42;;
60014;SDS011;45867;52.480;6.056;2022-08-04T14:16:18;6.90;;;2.42;;
60014;SDS011;45867;52.480;6.056;2022-08-04T14:18:44;8.68;;;2.13;;
60014;SDS011;45867;52.480;6.056;2022-08-04T14:21:10;5.03;;;1.95;;
60014;SDS011;45867;52.480;6.056;2022-08-04T14:23:54;5.60;;;1.80;;
60014;SDS011;45867;52.480;6.056;2022-08-04T14:26:24;6.35;;;2.20;;
60014;SDS011;45867;52.480;6.056;2022-08-04T14:28:50;3.75;;;1.80;;
60014;SDS011;45867;52.480;6.056;2022-08-04T14:31:17;10.60;;;2.92;;
60014;SDS011;45867;52.480;6.056;2022-08-04T14:33:43;8.45;;;2.28;;
60014;SDS011;45867;52.480;6.056;2022-08-04T14:36:09;5.10;;;2.50;;
60014;SDS011;45867;52.480;6.056;2022-08-04T14:38:42;7.30;;;2.05;;
60014;SDS011;45867;52.480;6.056;2022-08-04T14:41:07;6.63;;;1.80;;
60014;SDS011;45867;52.480;6.056;2022-08-04T14:43:39;4.88;;;1.92;;
60014;SDS011;45867;52.480;6.056;2022-08-04T14:46:05;10.02;;;2.00;;
60014;SDS011;45867;52.480;6.056;2022-08-04T14:48:30;5.28;;;1.55;;
60014;SDS011;45867;52.480;6.056;2022-08-04T14:50:55;6.10;;;1.67;;
60014;SDS011;45867;52.480;6.056;2022-08-04T14:53:22;5.40;;;1.55;;
60014;SDS011;45867;52.480;6.056;2022-08-04T14:55:54;5.18;;;1.80;;
60014;SDS011;45867;52.480;6.056;2022-08-04T14:58:27;6.97;;;1.67;;
60014;SDS011;45867;52.480;6.056;2022-08-04T15:01:05;3.28;;;1.30;;
60014;SDS011;45867;52.480;6.056;2022-08-04T15:03:43;2.72;;;1.50;;
60014;SDS011;45867;52.480;6.056;2022-08-04T15:06:09;7.35;;;1.50;;
60014;SDS011;45867;52.480;6.056;2022-08-04T15:08:36;6.93;;;2.10;;
60014;SDS011;45867;52.480;6.056;2022-08-04T15:11:01;7.57;;;1.90;;
60014;SDS011;45867;52.480;6.056;2022-08-04T15:13:27;4.05;;;1.80;;
60014;SDS011;45867;52.480;6.056;2022-08-04T15:15:53;4.18;;;1.60;;
60014;SDS011;45867;52.480;6.056;2022-08-04T15:18:18;4.25;;;1.50;;
60014;SDS011;45867;52.480;6.056;2022-08-04T15:20:43;7.30;;;1.77;;
60014;SDS011;45867;52.480;6.056;2022-08-04T15:23:10;5.43;;;1.90;;
60014;SDS011;45867;52.480;6.056;2022-08-04T15:25:40;4.40;;;1.88;;
60014;SDS011;45867;52.480;6.056;2022-08-04T15:30:31;5.93;;;1.80;;
60014;SDS011;45867;52.480;6.056;2022-08-04T15:32:59;5.80;;;2.00;;
60014;SDS011;45867;52.480;6.056;2022-08-04T15:35:26;5.97;;;2.10;;
60014;SDS011;45867;52.480;6.056;2022-08-04T15:45:51;12.50;;;2.30;;
60014;SDS011;45867;52.480;6.056;2022-08-04T15:53:28;11.40;;;2.03;;
60014;SDS011;45867;52.480;6.056;2022-08-04T15:58:49;4.28;;;1.80;;
60014;SDS011;45867;52.480;6.056;2022-08-04T16:01:15;5.95;;;1.98;;
60014;SDS011;45867;52.480;6.056;2022-08-04T16:03:41;5.50;;;2.05;;
60014;SDS011;45867;52.480;6.056;2022-08-04T16:19:04;6.82;;;1.88;;
60014;SDS011;45867;52.480;6.056;2022-08-04T16:21:31;7.32;;;1.70;;
60014;SDS011;45867;52.480;6.056;2022-08-04T16:37:09;7.45;;;1.85;;
60014;SDS011;45867;52.480;6.056;2022-08-04T16:39:34;10.25;;;1.70;;
60014;SDS011;45867;52.480;6.056;2022-08-04T16:42:10;5.40;;;1.65;;
60014;SDS011;45867;52.480;6.056;2022-08-04T16:44:45;4.22;;;1.80;;
60014;SDS011;45867;52.480;6.056;2022-08-04T16:47:59;8.27;;;1.77;;
60014;SDS011;45867;52.480;6.056;2022-08-04T16:50:07;4.38;;;1.70;;
60014;SDS011;45867;52.480;6.056;2022-08-04T16:55:27;7.25;;;1.80;;
60014;SDS011;45867;52.480;6.056;2022-08-04T16:58:08;6.30;;;2.00;;
60014;SDS011;45867;52.480;6.056;2022-08-04T17:00:34;6.88;;;1.85;;
60014;SDS011;45867;52.480;6.056;2022-08-04T17:03:05;4.22;;;1.80;;
60014;SDS011;45867;52.480;6.056;2022-08-04T17:05:31;6.75;;;2.00;;
60014;SDS011;45867;52.480;6.056;2022-08-04T17:07:57;5.95;;;2.38;;
60014;SDS011;45867;52.480;6.056;2022-08-04T17:10:32;7.35;;;2.00;;
60014;SDS011;45867;52.480;6.056;2022-08-04T17:12:58;8.15;;;2.00;;
60014;SDS011;45867;52.480;6.056;2022-08-04T17:15:24;7.22;;;2.20;;
60014;SDS011;45867;52.480;6.056;2022-08-04T17:17:49;6.18;;;2.00;;
60014;SDS011;45867;52.480;6.056;2022-08-04T17:20:15;5.70;;;2.10;;
60014;SDS011;45867;52.480;6.056;2022-08-04T17:22:40;16.60;;;4.85;;
60014;SDS011;45867;52.480;6.056;2022-08-04T17:25:06;8.93;;;3.08;;
60014;SDS011;45867;52.480;6.056;2022-08-04T17:27:31;5.93;;;2.35;;
60014;SDS011;45867;52.480;6.056;2022-08-04T17:29:56;4.47;;;2.33;;
60014;SDS011;45867;52.480;6.056;2022-08-04T17:32:22;11.45;;;2.40;;
60014;SDS011;45867;52.480;6.056;2022-08-04T17:35:04;3.83;;;1.90;;
60014;SDS011;45867;52.480;6.056;2022-08-04T17:42:49;5.65;;;1.88;;
60014;SDS011;45867;52.480;6.056;2022-08-04T17:45:24;6.40;;;2.03;;
60014;SDS011;45867;52.480;6.056;2022-08-04T17:47:50;3.55;;;1.65;;
60014;SDS011;45867;52.480;6.056;2022-08-04T17:50:25;4.93;;;1.92;;
60014;SDS011;45867;52.480;6.056;2022-08-04T17:52:58;4.60;;;2.20;;
60014;SDS011;45867;52.480;6.056;2022-08-04T17:55:23;11.25;;;2.65;;
60014;SDS011;45867;52.480;6.056;2022-08-04T17:58:10;13.53;;;4.53;;
60014;SDS011;45867;52.480;6.056;2022-08-04T18:00:34;9.45;;;3.40;;
60014;SDS011;45867;52.480;6.056;2022-08-04T18:02:59;12.20;;;3.30;;
60014;SDS011;45867;52.480;6.056;2022-08-04T18:05:25;7.03;;;2.67;;
60014;SDS011;45867;52.480;6.056;2022-08-04T18:07:51;7.72;;;2.90;;
60014;SDS011;45867;52.480;6.056;2022-08-04T18:10:16;14.52;;;2.70;;
60014;SDS011;45867;52.480;6.056;2022-08-04T18:12:43;4.75;;;1.90;;
60014;SDS011;45867;52.480;6.056;2022-08-04T18:15:22;7.05;;;2.17;;
60014;SDS011;45867;52.480;6.056;2022-08-04T18:17:49;8.15;;;2.28;;
60014;SDS011;45867;52.480;6.056;2022-08-04T18:20:18;5.65;;;2.10;;
60014;SDS011;45867;52.480;6.056;2022-08-04T18:22:46;4.57;;;2.00;;
60014;SDS011;45867;52.480;6.056;2022-08-04T18:25:19;12.13;;;2.13;;
60014;SDS011;45867;52.480;6.056;2022-08-04T18:27:54;8.10;;;2.20;;
60014;SDS011;45867;52.480;6.056;2022-08-04T18:30:21;5.75;;;2.38;;
60014;SDS011;45867;52.480;6.056;2022-08-04T18:32:46;7.22;;;2.40;;
60014;SDS011;45867;52.480;6.056;2022-08-04T18:35:12;4.10;;;2.10;;
60014;SDS011;45867;52.480;6.056;2022-08-04T18:37:38;5.03;;;2.22;;
60014;SDS011;45867;52.480;6.056;2022-08-04T18:40:04;7.65;;;2.30;;
60014;SDS011;45867;52.480;6.056;2022-08-04T18:42:29;5.85;;;2.50;;
60014;SDS011;45867;52.480;6.056;2022-08-04T18:44:54;9.65;;;2.40;;
60014;SDS011;45867;52.480;6.056;2022-08-04T18:47:20;11.85;;;2.72;;
60014;SDS011;45867;52.480;6.056;2022-08-04T18:49:52;10.05;;;3.10;;
60014;SDS011;45867;52.480;6.056;2022-08-04T18:52:20;9.13;;;2.78;;
60014;SDS011;45867;52.480;6.056;2022-08-04T18:54:46;8.13;;;2.17;;
60014;SDS011;45867;52.480;6.056;2022-08-04T18:57:11;7.87;;;2.30;;
60014;SDS011;45867;52.480;6.056;2022-08-04T18:59:42;13.00;;;2.47;;
60014;SDS011;45867;52.480;6.056;2022-08-04T19:02:07;7.80;;;2.83;;
60014;SDS011;45867;52.480;6.056;2022-08-04T19:04:32;4.72;;;2.65;;
60014;SDS011;45867;52.480;6.056;2022-08-04T19:06:58;16.60;;;2.60;;
60014;SDS011;45867;52.480;6.056;2022-08-04T19:09:23;6.35;;;2.38;;
60014;SDS011;45867;52.480;6.056;2022-08-04T19:11:51;6.18;;;2.50;;
60014;SDS011;45867;52.480;6.056;2022-08-04T19:14:19;13.68;;;2.90;;
60014;SDS011;45867;52.480;6.056;2022-08-04T19:16:44;9.52;;;2.90;;
60014;SDS011;45867;52.480;6.056;2022-08-04T19:19:12;8.63;;;2.58;;
60014;SDS011;45867;52.480;6.056;2022-08-04T19:21:38;8.98;;;2.40;;